Airfield :
LOGIN :

Register | Disclaimer

   EN    FR    IT 

 










Legend :    VFR   Marginal VFR   IFR   Intensive IFR   Very Intensive IFR
Visi :
Ceiling :
>= 8 km
>= 3000ft
5 to 8 km
1000 to 3000 ft
1500m to 5 km
500 to 1000 ft
800 to 1500m
200 to 500 ft
< 800m
< 200 ft
Symbols :   Thunderstorms  Fog  Heavy snow  Heavy precipitations  Wind > 20 kt
SIGMETs :     Misc.  Thunderstorms  Icing  Turbulence  Mountain Waves  Volcanic Ashes







- Airport Elevation : 170 ft
- IATA code : KRP


EKKA - Karup

CURRENT METAR :
  • 100820Z AUTO 27015KT 9999NDV SCT030/// 05/01 Q1003 TEMPO 31020G32KT

EXPIRED METARs :
  • 100750Z AUTO 27014KT 9999NDV SCT025/// SCT031/// BKN110/// 05/01 Q1003 TEMPO 31020G32KT
  • 100720Z AUTO 27017KT 9999NDV FEW024/// SCT027/// BKN100/// BKN110/// 05/01 Q1003 TEMPO 31020G32KT
  • 100650Z AUTO 28015KT 270V350 9999NDV BKN023/// 05/01 Q1003 TEMPO 31020G32KT
  • 100620Z AUTO 28015KT 270V350 9999NDV BKN023/// 05/02 Q1003 TEMPO 31020G32KT
  • 100601Z AUTO 29016G27KT 270V350 9999NDV BKN023/// 05/01 Q1003 TEMPO 31020G32KT
  • 100550Z AUTO 28018G33KT 270V350 9999NDV BKN023/// 05/02 Q1003 TEMPO 31020G32KT
  • 100546Z AUTO 28016G29KT 270V350 9999NDV BKN023/// 05/02 Q1003 TEMPO 31020G32KT

TAF TAF EKKA
Valid from the 10 at 09:00 until the 11 at 06:00 UTC


100809Z 1009/1106 31020G32KT 9999 SCT020
TEMPO 1009/1013 30015KT
BECMG 1013/1016 32015KT
No reported NOTAMs for that airfield.



MET'MAP, your aeronautical weather chart ! - Copyright ORBIFLY December 2007 - Disclaimer

ORBIFLY MET'MAP TEAM :

Programming & Development : Alexandra Zaïnal
Concept & Development : Baudouin d'Aumeries
Co-Development & Prog : Marc-Olivier Méhu
Technical & hardware support : Manuel Goepfert

Contact : metmap@orbifly.com




SOURCES & CREDITS :

   NOAA